Royalton, New York
Current Conditions -  °F | °C
As of 10:54 AM on Wednesday 22 Oct 2014 (Local Time) from KBUF Reporting Station
Overcast Overcast  
Wind Chill: 42°   Ceiling: 1700
Heat Index: 46°   Visibility: 10mi
Dew Point: 39°   Wind: 7mph
Humidity: 76%   Direction: 20°NNE
Pressure: 30.23"   Gusts: NA
Location:  43.1953°N, 78.4825°W
Report Text: KBUF 221454Z 02006KT 10SM FEW013 BKN017 OVC028 08/04 A3023 RMK AO2 SLP240 T00780039 53012
Loading
Personal Weather Stations






























Interactive Weather Map New forecast layout! Learn more

10-Day Weather Forecast

Advertisements
Track Severe Weather on mobile